Time;durP1;ratioP1;P1;durP2;ratioP2;P2;SDS_P1;SDS_P2;PMS_P1;PMS_P2;Temp;Humidity;BMP_temperature;BMP_pressure;BME280_temperature;BME280_humidity;BME280_pressure;Samples;Min_cycle;Max_cycle;Signal;HPM_P1;HPM_P2
2023/09/08 00:01:03;;;;;;;6.70;5.30;;;;;;;21.93;43.80;93811.16;4804389;29;20410;-93
2023/09/08 00:03:28;;;;;;;9.93;5.80;;;;;;;21.95;43.80;93822.41;4773521;29;20050;-93
2023/09/08 00:05:55;;;;;;;6.95;5.35;;;;;;;21.97;43.78;93822.63;4789908;29;20070;-94
2023/09/08 00:08:21;;;;;;;9.98;5.85;;;;;;;22.01;43.80;93818.34;4773674;29;20093;-93
2023/09/08 00:10:49;;;;;;;6.43;5.53;;;;;;;22.02;43.74;93822.56;4789012;29;20070;-93
2023/09/08 00:13:17;;;;;;;7.10;5.53;;;;;;;22.03;43.90;93823.31;4781588;29;20051;-93
2023/09/08 00:15:42;;;;;;;7.60;5.50;;;;;;;22.01;43.95;93812.81;4789890;29;20058;-93
2023/09/08 00:18:10;;;;;;;6.78;5.68;;;;;;;22.06;43.84;93823.00;4780395;29;20042;-93
2023/09/08 00:20:38;;;;;;;8.93;6.00;;;;;;;22.06;44.09;93819.53;4768914;29;20103;-93
2023/09/08 00:23:03;;;;;;;7.72;5.53;;;;;;;22.07;43.80;93816.25;4788435;29;20055;-94
2023/09/08 00:25:29;;;;;;;6.10;4.97;;;;;;;22.05;43.68;93809.78;4783199;29;20041;-93
2023/09/08 00:27:58;;;;;;;6.03;5.10;;;;;;;22.07;44.06;93812.75;4789453;29;20129;-93
2023/09/08 00:30:25;;;;;;;6.85;5.47;;;;;;;22.11;43.67;93805.63;4789481;29;20046;-92
2023/09/08 00:32:51;;;;;;;9.40;6.32;;;;;;;22.10;43.97;93812.41;4811406;29;20127;-93
2023/09/08 00:35:17;;;;;;;6.35;5.43;;;;;;;22.10;43.80;93808.91;4811630;29;20042;-93
2023/09/08 00:37:45;;;;;;;5.93;5.10;;;;;;;22.11;43.89;93813.16;4805789;29;20084;-94
2023/09/08 00:40:10;;;;;;;7.07;5.55;;;;;;;22.11;43.77;93799.38;4813855;29;20114;-93
2023/09/08 00:42:36;;;;;;;6.82;5.50;;;;;;;22.14;43.94;93801.09;4801701;29;20061;-93
2023/09/08 00:45:04;;;;;;;6.60;5.78;;;;;;;22.15;43.90;93808.84;4804302;29;20046;-93
2023/09/08 00:47:30;;;;;;;6.07;5.07;;;;;;;22.16;43.92;93812.31;4774398;29;20416;-93
2023/09/08 00:49:55;;;;;;;5.57;4.90;;;;;;;22.16;44.16;93810.31;4775004;29;20602;-93
2023/09/08 00:52:23;;;;;;;6.10;5.50;;;;;;;22.19;43.94;93806.53;4772265;29;20053;-93
2023/09/08 00:54:52;;;;;;;6.70;5.50;;;;;;;22.17;44.01;93811.06;4774906;29;20542;-92
2023/09/08 00:57:17;;;;;;;6.53;5.45;;;;;;;22.17;44.10;93809.06;4758041;29;20046;-93
2023/09/08 00:59:46;;;;;;;5.70;4.93;;;;;;;22.17;44.10;93811.81;4789615;29;20472;-94
2023/09/08 01:02:11;;;;;;;6.05;5.20;;;;;;;22.18;43.99;93801.53;4768113;29;20469;-92
2023/09/08 01:04:41;;;;;;;7.07;5.50;;;;;;;22.17;44.37;93809.06;4785932;29;20114;-93
2023/09/08 01:07:07;;;;;;;6.72;5.22;;;;;;;22.18;44.05;93809.78;4774583;29;20562;-93
2023/09/08 01:09:33;;;;;;;6.25;5.30;;;;;;;22.19;43.83;93805.78;4772636;29;20042;-93
2023/09/08 01:12:04;;;;;;;6.93;5.90;;;;;;;22.18;44.09;93799.53;4773978;29;20034;-92
2023/09/08 01:14:30;;;;;;;5.70;4.85;;;;;;;22.19;44.23;93801.00;4766361;29;20056;-93
2023/09/08 01:16:56;;;;;;;6.82;5.43;;;;;;;22.20;44.14;93802.50;4798760;29;20038;-92
2023/09/08 01:19:21;;;;;;;6.63;5.20;;;;;;;22.20;44.23;93801.75;4825919;29;20446;-94
2023/09/08 01:21:59;;;;;;;6.40;4.95;;;;;;;22.19;44.40;93794.75;4810510;29;20061;-92
2023/09/08 01:24:47;;;;;;;7.07;5.22;;;;;;;22.20;44.18;93794.22;4823292;29;20166;-92
2023/09/08 01:27:14;;;;;;;7.32;5.40;;;;;;;22.20;44.20;93790.75;4812309;29;20044;-93
2023/09/08 01:29:41;;;;;;;6.35;5.05;;;;;;;22.20;44.33;93793.50;4812162;29;20074;-93
2023/09/08 01:32:07;;;;;;;6.43;5.20;;;;;;;22.21;44.17;93787.47;4798722;29;20045;-93
2023/09/08 01:34:36;;;;;;;6.63;5.68;;;;;;;22.21;44.15;93792.97;4800069;29;20125;-94
2023/09/08 01:37:04;;;;;;;6.63;5.38;;;;;;;22.20;44.34;93785.97;4817886;29;20049;-93
2023/09/08 01:39:29;;;;;;;6.63;4.63;;;;;;;22.22;44.53;93780.69;4798732;29;20038;-94
2023/09/08 01:41:56;;;;;;;7.15;5.13;;;;;;;22.21;44.38;93784.72;4792902;29;20134;-93
2023/09/08 01:44:24;;;;;;;5.38;4.60;;;;;;;22.21;44.40;93773.69;4807549;29;20073;-93
2023/09/08 01:46:56;;;;;;;5.82;5.10;;;;;;;22.20;44.30;93777.72;4793119;29;20129;-93
2023/09/08 01:49:22;;;;;;;6.72;4.82;;;;;;;22.23;44.42;93778.66;4783115;29;20125;-92
2023/09/08 01:51:57;;;;;;;;;;;;;;;;;;;;;
2023/09/08 01:54:23;;;;;;;4.72;4.22;;;;;;;22.25;44.24;93772.63;4793702;29;20052;-93
2023/09/08 01:56:49;;;;;;;5.15;4.50;;;;;;;22.22;44.36;93777.19;4814818;29;20038;-93
2023/09/08 01:59:16;;;;;;;5.50;4.60;;;;;;;22.22;44.27;93769.66;4802836;29;20441;-93
2023/09/08 02:01:44;;;;;;;5.72;4.70;;;;;;;22.21;44.48;93779.19;4824292;29;20101;-93
2023/09/08 02:04:13;;;;;;;5.10;4.60;;;;;;;22.22;44.57;93777.19;4803505;29;20054;-93
2023/09/08 02:06:38;;;;;;;5.47;4.75;;;;;;;22.22;44.30;93779.94;4829527;29;20049;-93
2023/09/08 02:09:04;;;;;;;5.78;4.63;;;;;;;22.21;44.41;93776.44;4813033;29;20038;-93
2023/09/08 02:11:29;;;;;;;6.63;5.13;;;;;;;22.23;44.56;93775.91;4828537;29;20344;-93
2023/09/08 02:13:58;;;;;;;4.97;4.47;;;;;;;22.20;44.43;93777.72;4829140;29;20500;-93
2023/09/08 02:16:24;;;;;;;5.70;4.70;;;;;;;22.23;44.62;93768.41;4815516;29;20063;-93
2023/09/08 02:18:50;;;;;;;6.22;4.75;;;;;;;22.23;44.59;93773.16;4820764;29;20053;-94
2023/09/08 02:21:15;;;;;;;5.68;4.35;;;;;;;22.24;44.49;93774.66;4813360;29;20060;-93
2023/09/08 02:23:43;;;;;;;8.63;4.88;;;;;;;22.25;44.58;93776.13;4811097;29;20454;-93
2023/09/08 02:26:09;;;;;;;5.78;4.70;;;;;;;22.23;44.56;93782.16;4814163;29;20080;-93
2023/09/08 02:28:34;;;;;;;6.32;4.80;;;;;;;22.26;44.59;93779.63;4805076;29;20080;-92
2023/09/08 02:31:06;;;;;;;6.20;4.93;;;;;;;22.24;44.51;93771.91;4815342;29;20501;-93
2023/09/08 02:33:31;;;;;;;5.20;4.47;;;;;;;22.23;44.40;93776.66;4803962;29;20058;-92
2023/09/08 02:36:03;;;;;;;5.65;4.10;;;;;;;22.23;44.56;93773.16;4808277;29;20051;-93
2023/09/08 02:38:29;;;;;;;5.47;4.65;;;;;;;22.25;44.21;93773.38;4826043;29;20049;-93
2023/09/08 02:40:57;;;;;;;5.38;4.32;;;;;;;22.25;44.40;93762.38;4817722;29;20263;-92
2023/09/08 02:43:22;;;;;;;6.40;4.20;;;;;;;22.23;44.58;93765.66;4803427;29;20065;-92
2023/09/08 02:45:48;;;;;;;4.80;4.30;;;;;;;22.23;44.45;93765.66;4795393;29;20110;-93
2023/09/08 02:48:14;;;;;;;6.13;4.38;;;;;;;22.25;44.40;93764.38;4817132;29;20048;-93
2023/09/08 02:50:45;;;;;;;5.60;4.60;;;;;;;22.22;44.60;93761.41;4810666;29;20046;-93
2023/09/08 02:53:11;;;;;;;6.38;4.18;;;;;;;22.26;44.43;93769.38;4812678;29;20049;-93
2023/09/08 02:55:37;;;;;;;4.97;4.45;;;;;;;22.23;44.45;93760.13;4811486;29;20078;-92
2023/09/08 02:58:02;;;;;;;5.57;4.40;;;;;;;22.24;44.52;93758.13;4825163;29;20072;-92
2023/09/08 03:00:29;;;;;;;7.63;4.78;;;;;;;22.24;44.43;93760.88;4794302;29;20061;-93
2023/09/08 03:02:58;;;;;;;5.25;4.72;;;;;;;22.22;44.49;93757.91;4795553;29;20466;-93
2023/09/08 03:05:25;;;;;;;5.63;5.03;;;;;;;22.25;44.44;93747.84;4804238;29;20050;-92
2023/09/08 03:07:51;;;;;;;5.05;4.18;;;;;;;22.24;44.58;93758.13;4826905;29;20041;-93
2023/09/08 03:10:19;;;;;;;6.28;4.63;;;;;;;22.21;44.69;93757.16;4827541;29;20136;-93
2023/09/08 03:12:44;;;;;;;5.53;4.38;;;;;;;22.26;44.38;93752.84;4829649;29;20473;-93
2023/09/08 03:15:12;;;;;;;5.32;3.92;;;;;;;22.23;44.67;93760.13;4826857;29;20092;-92
2023/09/08 03:17:38;;;;;;;5.10;4.32;;;;;;;22.23;44.65;93749.13;4800643;29;20050;-92
2023/09/08 03:20:07;;;;;;;5.57;4.38;;;;;;;22.23;44.64;93742.88;4811174;29;20038;-92
2023/09/08 03:22:33;;;;;;;4.22;3.83;;;;;;;22.23;44.52;93738.09;4800923;29;20045;-93
2023/09/08 03:24:58;;;;;;;4.68;4.05;;;;;;;22.21;44.57;93748.91;4799355;29;20034;-94
2023/09/08 03:27:26;;;;;;;4.82;4.15;;;;;;;22.24;44.57;93744.34;4799139;29;20550;-93
2023/09/08 03:29:52;;;;;;;4.78;4.25;;;;;;;22.23;44.48;93743.63;4804250;29;20053;-92
2023/09/08 03:32:17;;;;;;;6.63;4.47;;;;;;;22.23;44.48;93737.38;4791884;29;20050;-92
2023/09/08 03:34:43;;;;;;;5.82;4.70;;;;;;;22.21;44.66;93737.88;4806315;29;20034;-93
2023/09/08 03:37:08;;;;;;;5.13;4.43;;;;;;;22.21;44.58;93737.88;4792585;29;20430;-92
2023/09/08 03:39:34;;;;;;;5.38;4.30;;;;;;;22.23;44.66;93743.63;4808647;29;20118;-93
2023/09/08 03:42:00;;;;;;;4.32;3.92;;;;;;;22.21;44.64;93735.13;4808913;29;20049;-92
2023/09/08 03:44:31;;;;;;;4.45;4.05;;;;;;;22.22;44.58;93744.13;4800415;29;20734;-93
2023/09/08 03:46:56;;;;;;;4.93;4.30;;;;;;;22.23;44.63;93740.13;4777961;29;20042;-94
2023/09/08 03:49:22;;;;;;;3.97;3.53;;;;;;;22.21;44.72;93739.91;4808381;29;21814;-92
2023/09/08 03:51:49;;;;;;;5.70;4.40;;;;;;;22.22;44.53;93739.38;4788885;29;20050;-92
2023/09/08 03:54:17;;;;;;;5.85;4.18;;;;;;;22.23;44.48;93745.63;4799359;29;20433;-92
2023/09/08 03:56:43;;;;;;;5.53;4.15;;;;;;;22.23;44.57;93740.13;4807813;29;20058;-93
2023/09/08 03:59:09;;;;;;;4.88;4.05;;;;;;;22.21;44.60;93739.91;4819727;29;20042;-94
2023/09/08 04:01:34;;;;;;;4.78;4.15;;;;;;;22.21;44.58;93735.13;4790016;29;20045;-93
2023/09/08 04:04:00;;;;;;;5.85;4.47;;;;;;;22.21;44.45;93746.16;4807290;29;20053;-92
2023/09/08 04:06:28;;;;;;;4.90;4.03;;;;;;;22.20;44.58;93744.66;4829619;29;20133;-93
2023/09/08 04:08:53;;;;;;;4.40;3.80;;;;;;;22.21;44.60;93746.16;4827780;29;20041;-93
2023/09/08 04:11:19;;;;;;;5.07;3.90;;;;;;;22.23;44.65;93745.63;4814577;29;20112;-92
2023/09/08 04:13:44;;;;;;;4.82;3.97;;;;;;;22.20;44.79;93752.94;4815813;29;20042;-92
2023/09/08 04:16:10;;;;;;;4.82;4.10;;;;;;;22.20;44.83;93746.69;4809835;29;20479;-93
2023/09/08 04:18:36;;;;;;;4.65;4.13;;;;;;;22.21;44.42;93748.91;4799563;29;20049;-93
2023/09/08 04:21:06;;;;;;;6.97;4.65;;;;;;;22.19;44.53;93751.44;4822687;29;20386;-93
2023/09/08 04:23:31;;;;;;;4.75;3.75;;;;;;;22.22;44.71;93757.91;4782885;29;20046;-92
2023/09/08 04:25:57;;;;;;;5.32;4.13;;;;;;;22.24;44.65;93752.63;4794285;29;20080;-92
2023/09/08 04:28:22;;;;;;;5.13;3.88;;;;;;;22.24;44.60;93749.88;4812002;29;20050;-92
2023/09/08 04:30:51;;;;;;;5.20;4.13;;;;;;;22.28;44.35;93757.81;4826908;29;20057;-93
2023/09/08 04:33:16;;;;;;;5.10;3.58;;;;;;;22.25;44.62;93751.34;4828526;29;20060;-93
2023/09/08 04:35:45;;;;;;;4.70;3.90;;;;;;;22.25;44.65;93756.13;4827961;29;20046;-94
2023/09/08 04:38:15;;;;;;;4.07;3.20;;;;;;;22.25;44.89;93756.84;4800113;29;20050;-92
2023/09/08 04:40:42;;;;;;;4.25;3.83;;;;;;;22.26;44.55;93760.34;4797542;29;20070;-92
2023/09/08 04:43:07;;;;;;;4.13;2.97;;;;;;;22.26;44.46;93763.09;4786557;29;20050;-92
2023/09/08 04:45:33;;;;;;;4.15;3.63;;;;;;;22.28;44.75;93753.06;4781942;29;20054;-91
2023/09/08 04:47:59;;;;;;;6.82;4.03;;;;;;;22.29;44.48;93762.81;4824707;29;20098;-93
2023/09/08 04:50:29;;;;;;;4.80;4.07;;;;;;;22.28;44.43;93766.09;4796670;29;20130;-92
2023/09/08 04:52:54;;;;;;;4.35;3.33;;;;;;;22.30;44.68;93775.28;4796806;29;20514;-93
2023/09/08 04:55:20;;;;;;;6.80;3.13;;;;;;;22.29;44.62;93762.81;4785077;29;20035;-92
2023/09/08 04:57:45;;;;;;;6.90;4.00;;;;;;;22.29;44.44;93779.31;4770383;29;20066;-91
2023/09/08 05:00:11;;;;;;;6.60;4.05;;;;;;;22.38;44.74;93778.16;4770852;29;20066;-92
2023/09/08 05:02:44;;;;;;;10.15;3.78;;;;;;;22.42;44.86;93773.81;4806350;29;20085;-93
2023/09/08 05:05:10;;;;;;;4.28;3.00;;;;;;;22.38;44.52;93769.88;4804434;29;20042;-92
2023/09/08 05:07:35;;;;;;;6.45;3.30;;;;;;;22.38;44.34;93762.38;4796565;29;20131;-93
2023/09/08 05:10:04;;;;;;;4.13;2.92;;;;;;;22.36;44.50;93775.19;4791618;29;20110;-93
2023/09/08 05:12:29;;;;;;;4.95;3.30;;;;;;;22.37;44.34;93760.88;4803936;29;20129;-94
2023/09/08 05:15:05;;;;;;;5.97;3.70;;;;;;;22.35;44.62;93777.19;4804167;29;20393;-93
2023/09/08 05:17:31;;;;;;;4.50;3.55;;;;;;;22.34;44.60;93770.19;4794994;29;20053;-93
2023/09/08 05:19:57;;;;;;;4.78;3.47;;;;;;;22.35;44.64;93776.44;4787144;29;20050;-93
2023/09/08 05:22:23;;;;;;;7.75;3.47;;;;;;;22.37;44.76;93777.41;4813293;29;20058;-93
2023/09/08 05:24:49;;;;;;;8.40;3.83;;;;;;;22.41;44.35;93785.38;4771440;29;20051;-93
2023/09/08 05:27:15;;;;;;;5.57;3.15;;;;;;;22.40;44.46;93770.84;4815947;29;20043;-93
2023/09/08 05:29:40;;;;;;;3.22;2.92;;;;;;;22.42;44.55;93779.34;4780736;29;20125;-92
2023/09/08 05:32:06;;;;;;;3.00;2.65;;;;;;;22.42;44.49;93775.84;4806889;29;20079;-93
2023/09/08 05:34:31;;;;;;;3.58;2.60;;;;;;;22.45;44.78;93777.53;4809648;29;20045;-92
2023/09/08 05:36:59;;;;;;;3.38;2.20;;;;;;;22.44;44.68;93776.06;4841173;29;20052;-92
2023/09/08 05:39:28;;;;;;;5.32;2.63;;;;;;;22.43;44.68;93777.31;4803951;29;20517;-92
2023/09/08 05:41:56;;;;;;;2.80;2.42;;;;;;;22.46;44.61;93776.25;4813777;29;20273;-92
2023/09/08 05:44:30;;;;;;;4.80;2.17;;;;;;;22.48;44.64;93782.00;4796790;29;20063;-92
2023/09/08 05:46:58;;;;;;;2.67;2.10;;;;;;;22.49;44.68;93780.72;4772883;29;20590;-93
2023/09/08 05:49:23;;;;;;;2.85;2.40;;;;;;;22.50;44.46;93780.19;4790840;29;20060;-92
2023/09/08 05:51:53;;;;;;;7.22;2.45;;;;;;;22.54;44.49;93785.38;4821620;29;20046;-93
2023/09/08 05:54:19;;;;;;;3.45;2.40;;;;;;;22.52;44.47;93777.63;4778758;29;20077;-93
2023/09/08 05:56:44;;;;;;;3.63;2.67;;;;;;;22.55;44.24;93784.09;4821214;29;20050;-92
2023/09/08 05:59:10;;;;;;;5.68;2.22;;;;;;;22.58;44.42;93783.03;4787997;29;20045;-91
2023/09/08 06:01:36;;;;;;;2.33;1.95;;;;;;;22.60;44.19;93785.28;4810498;29;20053;-92
2023/09/08 06:04:01;;;;;;;3.38;2.17;;;;;;;22.62;44.25;93788.25;4795455;29;20046;-93
2023/09/08 06:06:30;;;;;;;4.97;2.00;;;;;;;22.61;44.38;93784.00;4828458;29;20126;-93
2023/09/08 06:08:56;;;;;;;2.60;1.80;;;;;;;22.64;44.43;93782.94;4813147;29;20431;-92
2023/09/08 06:11:21;;;;;;;2.85;1.90;;;;;;;22.67;44.28;93790.16;4825986;29;20060;-91
2023/09/08 06:13:50;;;;;;;2.08;1.70;;;;;;;22.67;44.19;93787.41;4826896;29;20045;-91
2023/09/08 06:16:15;;;;;;;2.67;1.88;;;;;;;22.71;44.21;93793.34;4812827;29;20033;-91
2023/09/08 06:18:41;;;;;;;3.08;1.92;;;;;;;22.70;44.18;93797.38;4809124;29;20068;-91
2023/09/08 06:21:10;;;;;;;2.95;2.13;;;;;;;22.72;44.40;93784.53;4793880;29;20058;-92
2023/09/08 06:23:36;;;;;;;3.20;1.70;;;;;;;22.75;44.32;93782.72;4801939;29;20137;-93
2023/09/08 06:26:02;;;;;;;2.35;1.83;;;;;;;22.74;44.25;93781.22;4809447;29;20125;-93
2023/09/08 06:28:28;;;;;;;3.67;1.58;;;;;;;22.77;44.44;93771.91;4806165;29;20042;-93
2023/09/08 06:30:57;;;;;;;5.22;1.88;;;;;;;22.80;44.27;93784.66;4833941;29;20045;-91
2023/09/08 06:33:25;;;;;;;3.10;1.90;;;;;;;22.81;43.98;93784.13;4801404;29;20085;-92
2023/09/08 06:35:50;;;;;;;1.98;1.67;;;;;;;22.81;44.02;93786.88;4812959;29;20045;-94
2023/09/08 06:38:18;;;;;;;2.67;1.63;;;;;;;22.82;44.13;93785.63;4816764;29;20042;-92
2023/09/08 06:40:44;;;;;;;3.42;1.55;;;;;;;22.86;44.08;93790.81;4804724;29;20062;-94
2023/09/08 06:43:09;;;;;;;2.05;1.80;;;;;;;22.85;43.84;93790.06;4825581;29;20045;-92
2023/09/08 06:45:37;;;;;;;2.30;1.60;;;;;;;22.88;44.17;93791.78;4811862;29;20379;-91
2023/09/08 06:48:03;;;;;;;1.45;1.35;;;;;;;22.89;43.97;93787.75;4806363;29;20116;-91
2023/09/08 06:50:30;;;;;;;3.58;1.98;;;;;;;22.92;44.08;93791.47;4824677;29;20042;-92
2023/09/08 06:52:57;;;;;;;3.33;1.60;;;;;;;22.95;43.90;93793.13;4811813;29;20057;-92
2023/09/08 06:55:23;;;;;;;3.00;1.30;;;;;;;22.94;44.13;93794.44;4827315;29;20057;-92
2023/09/08 06:57:48;;;;;;;1.55;1.30;;;;;;;22.95;44.14;93795.16;4817680;29;20110;-91
2023/09/08 07:00:16;;;;;;;3.75;1.80;;;;;;;23.00;44.02;93791.53;4809342;29;20046;-93
2023/09/08 07:02:43;;;;;;;1.50;1.40;;;;;;;23.00;43.93;93791.53;4801536;29;20057;-93
2023/09/08 07:05:08;;;;;;;1.85;1.20;;;;;;;23.02;43.92;93786.97;4810244;29;20069;-91
2023/09/08 07:07:35;;;;;;;15.25;2.08;;;;;;;22.99;44.18;93790.78;4811222;29;20070;-91
2023/09/08 07:10:01;;;;;;;1.65;1.17;;;;;;;23.00;44.00;93788.78;4824685;29;20045;-93
2023/09/08 07:12:27;;;;;;;1.88;1.20;;;;;;;23.01;43.89;93788.25;4800452;29;20439;-91
2023/09/08 07:14:53;;;;;;;2.60;1.60;;;;;;;23.03;44.09;93790.47;4827533;29;20049;-91
2023/09/08 07:17:18;;;;;;;2.20;1.75;;;;;;;23.00;43.94;93795.03;4810863;29;20094;-93
2023/09/08 07:19:43;;;;;;;2.03;1.50;;;;;;;23.03;43.90;93791.22;4809375;29;20058;-91
2023/09/08 07:22:09;;;;;;;1.98;1.00;;;;;;;23.08;43.97;93792.38;4824965;29;20060;-93
2023/09/08 07:24:35;;;;;;;3.05;1.63;;;;;;;23.07;43.84;93790.91;4805187;29;20053;-92
2023/09/08 07:27:00;;;;;;;3.42;1.40;;;;;;;23.09;43.76;93791.84;4825594;29;20422;-91
2023/09/08 07:29:26;;;;;;;4.97;1.67;;;;;;;23.10;43.83;93798.84;4812409;29;20160;-91
2023/09/08 07:31:51;;;;;;;1.73;1.45;;;;;;;23.09;43.91;93800.13;4820883;29;20109;-92
2023/09/08 07:34:17;;;;;;;1.40;1.20;;;;;;;23.12;43.84;93796.31;4800333;29;20046;-91
2023/09/08 07:36:43;;;;;;;3.58;1.30;;;;;;;23.12;43.80;93796.31;4797038;29;20060;-91
2023/09/08 07:39:08;;;;;;;2.38;1.08;;;;;;;23.12;44.05;93790.06;4818950;29;20438;-90
2023/09/08 07:41:34;;;;;;;2.40;1.50;;;;;;;23.12;44.21;93798.31;4821263;29;20062;-92
2023/09/08 07:44:00;;;;;;;3.17;1.23;;;;;;;23.19;44.13;93792.13;4810688;29;20093;-93
2023/09/08 07:46:26;;;;;;;2.50;1.23;;;;;;;23.18;43.90;93785.88;4810614;29;20054;-90
2023/09/08 07:48:52;;;;;;;1.90;1.33;;;;;;;23.21;43.79;93789.59;4810175;29;20042;-91
2023/09/08 07:51:18;;;;;;;3.38;1.63;;;;;;;23.19;43.97;93795.63;4802127;29;20070;-91
2023/09/08 07:53:59;;;;;;;3.08;1.15;;;;;;;23.19;44.03;93798.41;4832473;29;20038;-90
2023/09/08 07:56:24;;;;;;;;;;;;;;;23.18;44.02;93801.69;4858328;29;20046;-91
2023/09/08 07:58:49;;;;;;;5.90;1.70;;;;;;;23.19;44.02;93792.88;4846827;29;19920;-91
2023/09/08 08:01:15;;;;;;;4.65;2.75;;;;;;;23.18;43.90;93796.91;4831442;29;20313;-91
2023/09/08 08:03:42;;;;;;;76.68;9.63;;;;;;;23.17;43.63;93800.94;4803791;29;20054;-90
2023/09/08 08:06:08;;;;;;;11.57;3.17;;;;;;;23.22;44.08;93802.13;4815151;29;20042;-92
2023/09/08 08:08:38;;;;;;;4.50;2.13;;;;;;;23.21;43.88;93801.38;4792380;29;20047;-90
2023/09/08 08:11:11;;;;;;;11.00;2.13;;;;;;;23.23;43.94;93809.13;4809618;29;20043;-91
2023/09/08 08:13:39;;;;;;;6.03;1.83;;;;;;;23.26;44.00;93816.31;4824237;29;20047;-90
2023/09/08 08:16:05;;;;;;;8.50;3.03;;;;;;;23.29;43.74;93818.03;4825001;29;20053;-90
2023/09/08 08:18:30;;;;;;;21.95;5.45;;;;;;;23.27;43.86;93814.31;4803416;29;20046;-91
2023/09/08 08:20:56;;;;;;;13.57;6.80;;;;;;;23.26;44.03;93810.81;4801876;29;20185;-91
2023/09/08 08:23:22;;;;;;;12.25;7.57;;;;;;;23.24;44.11;93810.59;4810559;29;20078;-91
2023/09/08 08:25:49;;;;;;;21.23;12.68;;;;;;;23.26;43.89;93805.28;4800738;29;20637;-91
2023/09/08 08:28:14;;;;;;;23.98;12.73;;;;;;;23.28;43.86;93816.53;4809864;29;20050;-90
2023/09/08 08:30:40;;;;;;;20.95;11.40;;;;;;;23.27;43.98;93811.56;4809114;29;20061;-91
2023/09/08 08:33:06;;;;;;;18.45;11.10;;;;;;;23.28;44.01;93815.78;4788316;29;20043;-91
2023/09/08 08:35:31;;;;;;;16.20;9.93;;;;;;;23.28;43.93;93810.28;4835587;29;20048;-92
2023/09/08 08:37:59;;;;;;;19.52;12.55;;;;;;;23.27;43.82;93808.78;4831283;29;20093;-91
2023/09/08 08:40:26;;;;;;;17.35;10.32;;;;;;;23.29;44.10;93800.72;4827151;29;20117;-92
2023/09/08 08:42:55;;;;;;;14.73;9.13;;;;;;;23.24;44.18;93807.84;4823751;29;20049;-90
2023/09/08 08:45:21;;;;;;;18.10;9.13;;;;;;;23.27;44.01;93819.81;4831191;29;20126;-91
2023/09/08 08:47:47;;;;;;;25.70;9.02;;;;;;;23.29;43.88;93809.75;4809471;29;20050;-91
2023/09/08 08:50:13;;;;;;;18.88;8.50;;;;;;;23.22;43.94;93818.66;4794218;29;20088;-91
2023/09/08 08:52:48;;;;;;;46.40;11.45;;;;;;;23.23;44.19;93811.88;4822925;29;20045;-92
2023/09/08 08:55:15;;;;;;;58.60;12.20;;;;;;;23.25;44.30;93806.56;4837923;29;20532;-91
2023/09/08 08:57:41;;;;;;;67.45;15.82;;;;;;;23.27;44.24;93806.03;4812646;29;20050;-91
2023/09/08 09:00:18;;;;;;;73.03;14.80;;;;;;;23.20;44.21;93810.91;4829270;29;20049;-91
2023/09/08 09:02:43;;;;;;;62.28;14.02;;;;;;;23.22;44.03;93815.91;4813004;29;20058;-92
2023/09/08 09:05:12;;;;;;;51.10;10.75;;;;;;;23.26;44.24;93808.06;4796936;29;20489;-93
2023/09/08 09:07:39;;;;;;;50.25;11.23;;;;;;;23.23;44.31;93812.63;4812958;29;20835;-91
2023/09/08 09:10:04;;;;;;;35.85;10.80;;;;;;;23.25;44.11;93809.31;4792964;29;20050;-91
2023/09/08 09:12:30;;;;;;;25.05;8.57;;;;;;;23.25;44.29;93809.31;4836775;29;20049;-90
2023/09/08 09:14:58;;;;;;;27.95;8.30;;;;;;;23.25;44.10;93820.34;4821340;29;20042;-91
2023/09/08 09:17:23;;;;;;;22.92;8.57;;;;;;;23.26;44.23;93808.06;4834784;29;20049;-91
2023/09/08 09:19:49;;;;;;;25.02;8.60;;;;;;;23.24;44.05;93808.59;4829113;29;20532;-93
2023/09/08 09:22:14;;;;;;;24.45;7.90;;;;;;;23.23;44.19;93818.13;4831446;29;20065;-91
2023/09/08 09:24:43;;;;;;;30.50;8.15;;;;;;;23.25;44.11;93812.81;4831875;29;20429;-91
2023/09/08 09:27:09;;;;;;;28.27;7.53;;;;;;;23.22;44.30;93808.38;4830190;29;20483;-90
2023/09/08 09:29:43;;;;;;;37.22;8.88;;;;;;;23.22;44.46;93819.41;4828361;29;20053;-91
2023/09/08 09:32:08;;;;;;;17.65;8.43;;;;;;;23.21;44.06;93809.66;4797170;29;20565;-91
2023/09/08 09:34:34;;;;;;;21.05;7.75;;;;;;;23.21;44.56;93817.91;4811126;29;20045;-92
2023/09/08 09:36:59;;;;;;;27.83;8.52;;;;;;;23.21;44.59;93814.41;4801444;29;20113;-90
2023/09/08 09:39:25;;;;;;;25.88;8.60;;;;;;;23.20;44.53;93813.69;4834941;29;20029;-92
2023/09/08 09:41:56;;;;;;;20.70;7.22;;;;;;;23.19;44.21;93812.19;4838411;29;20046;-92
2023/09/08 09:44:23;;;;;;;20.02;7.63;;;;;;;23.18;44.34;93802.44;4851526;29;20555;-91
2023/09/08 09:47:00;;;;;;;22.02;7.32;;;;;;;23.16;44.53;93805.00;4820433;29;20041;-91
2023/09/08 09:49:31;;;;;;;24.45;6.88;;;;;;;23.22;44.46;93813.88;4844135;29;20078;-91
2023/09/08 09:51:57;;;;;;;15.90;6.15;;;;;;;23.23;44.39;93807.09;4814567;29;20050;-91
2023/09/08 09:54:25;;;;;;;13.65;5.75;;;;;;;23.24;44.48;93810.59;4828421;29;20472;-92
2023/09/08 09:56:52;;;;;;;28.50;6.88;;;;;;;23.22;44.51;93802.84;4820622;29;20045;-90
2023/09/08 09:59:18;;;;;;;20.40;6.43;;;;;;;23.23;44.44;93806.34;4795469;29;20141;-92
2023/09/08 10:01:43;;;;;;;23.05;6.82;;;;;;;23.23;44.55;93804.34;4818835;29;20216;-93
2023/09/08 10:04:10;;;;;;;17.05;5.72;;;;;;;23.22;44.67;93807.63;4793085;29;20080;-91
2023/09/08 10:06:37;;;;;;;16.92;6.32;;;;;;;23.21;44.45;93804.13;4801336;29;20194;-90
2023/09/08 10:09:08;;;;;;;13.40;5.90;;;;;;;23.19;44.58;93803.91;4808946;29;20081;-91
2023/09/08 10:11:45;;;;;;;15.10;5.60;;;;;;;23.20;44.69;93801.91;4825129;29;20055;-91
2023/09/08 10:14:13;;;;;;;12.60;5.47;;;;;;;23.19;44.71;93803.16;4776773;29;20035;-90
2023/09/08 10:16:39;;;;;;;14.10;4.70;;;;;;;23.19;44.83;93798.41;4766300;30;20105;-91
2023/09/08 10:19:08;;;;;;;16.98;5.40;;;;;;;23.22;44.67;93793.84;4742756;30;20048;-91
2023/09/08 10:21:39;;;;;;;13.18;4.85;;;;;;;23.18;44.58;93794.16;4761224;30;20097;-90
2023/09/08 10:24:26;;;;;;;13.20;5.38;;;;;;;23.19;44.60;93794.91;4737689;30;20142;-91
2023/09/08 10:26:58;;;;;;;9.85;4.50;;;;;;;23.18;44.65;93793.41;4777591;29;20050;-91
2023/09/08 10:29:24;;;;;;;10.60;4.82;;;;;;;23.24;44.71;93785.78;4733580;30;20047;-91
2023/09/08 10:31:52;;;;;;;17.17;5.15;;;;;;;23.19;44.78;93792.88;4754886;30;20056;-92
2023/09/08 10:34:17;;;;;;;8.52;4.22;;;;;;;23.25;44.74;93790.00;4743506;30;20048;-91
2023/09/08 10:36:43;;;;;;;9.43;4.07;;;;;;;23.24;44.93;93797.53;4756854;23;20036;-91
2023/09/08 10:39:30;;;;;;;9.88;4.20;;;;;;;23.20;44.72;93794.38;4868245;29;20056;-92
2023/09/08 10:42:19;;;;;;;10.40;3.83;;;;;;;23.21;44.84;93787.56;4883776;29;20040;-92
2023/09/08 10:44:51;;;;;;;12.80;4.95;;;;;;;23.18;44.67;93788.63;4882017;29;20064;-91
2023/09/08 10:49:42;;;;;;;13.88;4.82;;;;;;;23.18;44.82;93788.63;4895192;23;20052;-91
2023/09/08 10:52:10;;;;;;;8.02;4.25;;;;;;;23.16;44.73;93793.97;4855184;29;20032;-91
2023/09/08 10:54:49;;;;;;;13.65;4.60;;;;;;;23.15;44.93;93786.22;4847837;29;20045;-91
2023/09/08 10:57:16;;;;;;;9.20;3.85;;;;;;;23.17;44.72;93789.16;4858588;29;20104;-92
2023/09/08 10:59:51;;;;;;;9.95;4.05;;;;;;;23.17;44.80;93784.41;4875462;29;20044;-92
2023/09/08 11:02:42;;;;;;;9.68;4.53;;;;;;;23.16;44.83;93787.72;4827245;29;20106;-91
2023/09/08 11:05:14;;;;;;;8.02;4.13;;;;;;;23.16;44.97;93780.19;4817072;29;20098;-93
2023/09/08 11:07:41;;;;;;;7.82;4.22;;;;;;;23.15;44.74;93786.97;4810025;29;20058;-90
2023/09/08 11:10:07;;;;;;;7.57;4.32;;;;;;;23.16;44.93;93779.44;4835307;29;20048;-92
2023/09/08 11:12:33;;;;;;;10.65;3.78;;;;;;;23.18;44.75;93774.09;4809441;29;20046;-92
2023/09/08 11:15:04;;;;;;;14.05;3.83;;;;;;;23.15;44.85;93786.22;4848858;29;20049;-90
2023/09/08 11:17:30;;;;;;;13.52;4.40;;;;;;;23.16;45.02;93779.44;4842561;29;20045;-90
2023/09/08 11:19:55;;;;;;;6.93;3.75;;;;;;;23.18;45.01;93779.63;4828186;29;20106;-91
2023/09/08 11:22:24;;;;;;;8.32;4.40;;;;;;;23.17;44.78;93795.44;4819475;29;20285;-91
2023/09/08 11:24:50;;;;;;;16.73;4.00;;;;;;;23.17;45.08;93786.41;4805864;29;20033;-91
2023/09/08 11:27:15;;;;;;;12.10;4.32;;;;;;;23.17;44.82;93787.16;4811965;29;20041;-91
2023/09/08 11:29:41;;;;;;;12.52;4.65;;;;;;;23.18;45.08;93777.59;4830200;23;20644;-90
2023/09/08 11:32:09;;;;;;;10.50;3.95;;;;;;;23.18;44.97;93785.13;4867575;29;20374;-93
2023/09/08 11:34:36;;;;;;;8.65;3.83;;;;;;;23.17;44.90;93789.16;4875249;29;20032;-90